sensor_id;sensor_type;location;lat;lon;timestamp;P1;durP1;ratioP1;P2;durP2;ratioP2
11911;SDS011;6016;41.928;25.556;2022-12-07T00:01:04;57.25;;;17.95;;
11911;SDS011;6016;41.928;25.556;2022-12-07T00:03:31;60.65;;;19.63;;
11911;SDS011;6016;41.928;25.556;2022-12-07T00:05:58;52.45;;;17.98;;
11911;SDS011;6016;41.928;25.556;2022-12-07T00:08:25;56.42;;;16.58;;
11911;SDS011;6016;41.928;25.556;2022-12-07T00:10:54;51.92;;;16.27;;
11911;SDS011;6016;41.928;25.556;2022-12-07T00:13:20;62.47;;;19.65;;
11911;SDS011;6016;41.928;25.556;2022-12-07T00:15:47;69.53;;;21.80;;
11911;SDS011;6016;41.928;25.556;2022-12-07T00:18:14;59.70;;;18.45;;
11911;SDS011;6016;41.928;25.556;2022-12-07T00:20:41;54.85;;;17.83;;
11911;SDS011;6016;41.928;25.556;2022-12-07T00:23:08;56.92;;;17.77;;
11911;SDS011;6016;41.928;25.556;2022-12-07T00:25:34;75.20;;;22.42;;
11911;SDS011;6016;41.928;25.556;2022-12-07T00:28:03;69.30;;;20.38;;
11911;SDS011;6016;41.928;25.556;2022-12-07T00:30:30;54.13;;;16.75;;
11911;SDS011;6016;41.928;25.556;2022-12-07T00:32:57;63.85;;;17.45;;
11911;SDS011;6016;41.928;25.556;2022-12-07T00:35:24;61.90;;;17.83;;
11911;SDS011;6016;41.928;25.556;2022-12-07T00:37:50;61.75;;;18.20;;
11911;SDS011;6016;41.928;25.556;2022-12-07T00:40:17;68.82;;;19.27;;
11911;SDS011;6016;41.928;25.556;2022-12-07T00:42:44;72.72;;;22.10;;
11911;SDS011;6016;41.928;25.556;2022-12-07T00:45:12;118.13;;;39.72;;
11911;SDS011;6016;41.928;25.556;2022-12-07T00:47:39;61.42;;;20.05;;
11911;SDS011;6016;41.928;25.556;2022-12-07T00:50:06;59.88;;;18.00;;
11911;SDS011;6016;41.928;25.556;2022-12-07T00:52:33;63.45;;;18.10;;
11911;SDS011;6016;41.928;25.556;2022-12-07T00:55:00;64.70;;;18.48;;
11911;SDS011;6016;41.928;25.556;2022-12-07T00:57:27;55.35;;;16.65;;
11911;SDS011;6016;41.928;25.556;2022-12-07T00:59:54;64.28;;;17.95;;
11911;SDS011;6016;41.928;25.556;2022-12-07T01:02:24;58.35;;;17.83;;
11911;SDS011;6016;41.928;25.556;2022-12-07T01:04:50;59.63;;;17.63;;
11911;SDS011;6016;41.928;25.556;2022-12-07T01:07:17;61.35;;;17.02;;
11911;SDS011;6016;41.928;25.556;2022-12-07T01:09:44;116.25;;;36.50;;
11911;SDS011;6016;41.928;25.556;2022-12-07T01:12:12;73.78;;;22.33;;
11911;SDS011;6016;41.928;25.556;2022-12-07T01:14:39;74.45;;;21.70;;
11911;SDS011;6016;41.928;25.556;2022-12-07T01:17:08;81.22;;;23.98;;
11911;SDS011;6016;41.928;25.556;2022-12-07T01:19:36;98.30;;;31.02;;
11911;SDS011;6016;41.928;25.556;2022-12-07T01:22:03;69.03;;;22.25;;
11911;SDS011;6016;41.928;25.556;2022-12-07T01:24:29;64.13;;;19.85;;
11911;SDS011;6016;41.928;25.556;2022-12-07T01:26:56;68.57;;;21.25;;
11911;SDS011;6016;41.928;25.556;2022-12-07T01:29:23;66.10;;;20.80;;
11911;SDS011;6016;41.928;25.556;2022-12-07T01:31:50;65.32;;;19.30;;
11911;SDS011;6016;41.928;25.556;2022-12-07T01:34:17;61.47;;;18.85;;
11911;SDS011;6016;41.928;25.556;2022-12-07T01:36:45;62.50;;;18.63;;
11911;SDS011;6016;41.928;25.556;2022-12-07T01:39:12;63.38;;;18.50;;
11911;SDS011;6016;41.928;25.556;2022-12-07T01:41:39;65.40;;;19.85;;
11911;SDS011;6016;41.928;25.556;2022-12-07T01:44:19;60.60;;;18.27;;
11911;SDS011;6016;41.928;25.556;2022-12-07T01:46:47;66.10;;;18.85;;
11911;SDS011;6016;41.928;25.556;2022-12-07T01:49:20;57.13;;;18.92;;
11911;SDS011;6016;41.928;25.556;2022-12-07T01:51:54;63.38;;;18.25;;
11911;SDS011;6016;41.928;25.556;2022-12-07T01:54:25;63.28;;;19.35;;
11911;SDS011;6016;41.928;25.556;2022-12-07T01:56:53;68.00;;;18.52;;
11911;SDS011;6016;41.928;25.556;2022-12-07T01:59:23;59.70;;;17.80;;
11911;SDS011;6016;41.928;25.556;2022-12-07T02:01:51;79.53;;;22.88;;
11911;SDS011;6016;41.928;25.556;2022-12-07T02:04:21;123.28;;;40.47;;
11911;SDS011;6016;41.928;25.556;2022-12-07T02:06:48;70.05;;;20.25;;
11911;SDS011;6016;41.928;25.556;2022-12-07T02:09:17;59.95;;;18.60;;
11911;SDS011;6016;41.928;25.556;2022-12-07T02:11:44;63.95;;;18.83;;
11911;SDS011;6016;41.928;25.556;2022-12-07T02:14:11;79.88;;;25.05;;
11911;SDS011;6016;41.928;25.556;2022-12-07T02:16:40;74.05;;;22.38;;
11911;SDS011;6016;41.928;25.556;2022-12-07T02:19:33;89.10;;;28.75;;
11911;SDS011;6016;41.928;25.556;2022-12-07T02:22:27;64.60;;;17.35;;
11911;SDS011;6016;41.928;25.556;2022-12-07T02:25:18;61.00;;;18.10;;
11911;SDS011;6016;41.928;25.556;2022-12-07T02:27:58;58.80;;;18.48;;
11911;SDS011;6016;41.928;25.556;2022-12-07T02:30:32;62.67;;;18.80;;
11911;SDS011;6016;41.928;25.556;2022-12-07T02:33:03;67.72;;;19.00;;
11911;SDS011;6016;41.928;25.556;2022-12-07T02:35:33;60.88;;;18.95;;
11911;SDS011;6016;41.928;25.556;2022-12-07T02:38:03;60.72;;;19.17;;
11911;SDS011;6016;41.928;25.556;2022-12-07T02:40:39;63.70;;;17.50;;
11911;SDS011;6016;41.928;25.556;2022-12-07T02:43:11;67.90;;;17.67;;
11911;SDS011;6016;41.928;25.556;2022-12-07T02:48:12;65.35;;;17.45;;
11911;SDS011;6016;41.928;25.556;2022-12-07T02:50:43;54.55;;;16.85;;
11911;SDS011;6016;41.928;25.556;2022-12-07T02:55:57;65.47;;;18.15;;
11911;SDS011;6016;41.928;25.556;2022-12-07T02:58:28;62.58;;;17.13;;
11911;SDS011;6016;41.928;25.556;2022-12-07T03:01:08;68.25;;;17.45;;
11911;SDS011;6016;41.928;25.556;2022-12-07T03:03:42;59.85;;;16.95;;
11911;SDS011;6016;41.928;25.556;2022-12-07T03:06:18;61.08;;;17.17;;
11911;SDS011;6016;41.928;25.556;2022-12-07T03:08:52;65.28;;;17.92;;
11911;SDS011;6016;41.928;25.556;2022-12-07T03:11:25;65.50;;;17.83;;
11911;SDS011;6016;41.928;25.556;2022-12-07T03:13:59;60.90;;;17.15;;
11911;SDS011;6016;41.928;25.556;2022-12-07T03:16:37;62.15;;;17.25;;
11911;SDS011;6016;41.928;25.556;2022-12-07T03:19:10;68.43;;;18.02;;
11911;SDS011;6016;41.928;25.556;2022-12-07T03:21:43;58.75;;;16.35;;
11911;SDS011;6016;41.928;25.556;2022-12-07T03:24:14;55.28;;;15.65;;
11911;SDS011;6016;41.928;25.556;2022-12-07T03:26:44;54.28;;;15.55;;
11911;SDS011;6016;41.928;25.556;2022-12-07T03:29:17;52.67;;;15.13;;
11911;SDS011;6016;41.928;25.556;2022-12-07T03:31:50;55.95;;;16.23;;
11911;SDS011;6016;41.928;25.556;2022-12-07T03:34:24;55.15;;;16.45;;
11911;SDS011;6016;41.928;25.556;2022-12-07T03:36:56;58.33;;;16.42;;
11911;SDS011;6016;41.928;25.556;2022-12-07T03:39:29;64.13;;;16.20;;
11911;SDS011;6016;41.928;25.556;2022-12-07T03:41:59;60.55;;;16.98;;
11911;SDS011;6016;41.928;25.556;2022-12-07T03:44:31;58.80;;;16.08;;
11911;SDS011;6016;41.928;25.556;2022-12-07T03:47:03;55.17;;;17.17;;
11911;SDS011;6016;41.928;25.556;2022-12-07T03:49:35;56.97;;;16.70;;
11911;SDS011;6016;41.928;25.556;2022-12-07T03:52:08;59.50;;;16.73;;
11911;SDS011;6016;41.928;25.556;2022-12-07T03:54:43;58.97;;;16.77;;
11911;SDS011;6016;41.928;25.556;2022-12-07T03:57:14;51.65;;;16.23;;
11911;SDS011;6016;41.928;25.556;2022-12-07T03:59:42;55.00;;;16.13;;
11911;SDS011;6016;41.928;25.556;2022-12-07T04:02:11;52.03;;;15.80;;
11911;SDS011;6016;41.928;25.556;2022-12-07T04:04:39;53.38;;;16.25;;
11911;SDS011;6016;41.928;25.556;2022-12-07T04:07:07;60.90;;;17.13;;
11911;SDS011;6016;41.928;25.556;2022-12-07T04:09:35;56.97;;;16.55;;
11911;SDS011;6016;41.928;25.556;2022-12-07T04:12:02;65.28;;;16.05;;
11911;SDS011;6016;41.928;25.556;2022-12-07T04:14:29;61.53;;;17.10;;
11911;SDS011;6016;41.928;25.556;2022-12-07T04:16:57;59.28;;;15.73;;
11911;SDS011;6016;41.928;25.556;2022-12-07T04:19:27;61.55;;;17.05;;
11911;SDS011;6016;41.928;25.556;2022-12-07T04:21:55;55.53;;;16.92;;
11911;SDS011;6016;41.928;25.556;2022-12-07T04:24:23;59.40;;;16.65;;
11911;SDS011;6016;41.928;25.556;2022-12-07T04:26:50;65.30;;;17.63;;
11911;SDS011;6016;41.928;25.556;2022-12-07T04:29:17;63.35;;;16.38;;
11911;SDS011;6016;41.928;25.556;2022-12-07T04:31:44;58.60;;;16.65;;
11911;SDS011;6016;41.928;25.556;2022-12-07T04:34:12;64.75;;;16.30;;
11911;SDS011;6016;41.928;25.556;2022-12-07T04:36:41;59.30;;;16.65;;
11911;SDS011;6016;41.928;25.556;2022-12-07T04:39:09;61.40;;;16.30;;
11911;SDS011;6016;41.928;25.556;2022-12-07T04:41:44;61.25;;;16.77;;
11911;SDS011;6016;41.928;25.556;2022-12-07T04:44:10;59.67;;;18.52;;
11911;SDS011;6016;41.928;25.556;2022-12-07T04:46:39;59.00;;;18.40;;
11911;SDS011;6016;41.928;25.556;2022-12-07T04:49:07;70.88;;;19.65;;
11911;SDS011;6016;41.928;25.556;2022-12-07T04:51:35;68.30;;;20.77;;
11911;SDS011;6016;41.928;25.556;2022-12-07T04:54:03;66.38;;;20.52;;
11911;SDS011;6016;41.928;25.556;2022-12-07T04:56:30;71.30;;;23.25;;
11911;SDS011;6016;41.928;25.556;2022-12-07T04:58:57;64.32;;;20.88;;
11911;SDS011;6016;41.928;25.556;2022-12-07T05:01:24;68.18;;;22.30;;
11911;SDS011;6016;41.928;25.556;2022-12-07T05:03:51;73.80;;;22.25;;
11911;SDS011;6016;41.928;25.556;2022-12-07T05:06:17;63.22;;;19.35;;
11911;SDS011;6016;41.928;25.556;2022-12-07T05:08:44;64.10;;;18.35;;
11911;SDS011;6016;41.928;25.556;2022-12-07T05:11:13;60.50;;;19.63;;
11911;SDS011;6016;41.928;25.556;2022-12-07T05:14:01;64.88;;;21.00;;
11911;SDS011;6016;41.928;25.556;2022-12-07T05:16:28;69.35;;;22.00;;
11911;SDS011;6016;41.928;25.556;2022-12-07T05:18:55;71.40;;;21.05;;
11911;SDS011;6016;41.928;25.556;2022-12-07T05:21:22;72.57;;;22.67;;
11911;SDS011;6016;41.928;25.556;2022-12-07T05:23:49;72.97;;;21.52;;
11911;SDS011;6016;41.928;25.556;2022-12-07T05:26:18;66.75;;;21.23;;
11911;SDS011;6016;41.928;25.556;2022-12-07T05:28:45;77.28;;;22.58;;
11911;SDS011;6016;41.928;25.556;2022-12-07T05:31:15;75.50;;;22.30;;
11911;SDS011;6016;41.928;25.556;2022-12-07T05:33:42;59.80;;;21.60;;
11911;SDS011;6016;41.928;25.556;2022-12-07T05:36:09;73.28;;;22.27;;
11911;SDS011;6016;41.928;25.556;2022-12-07T05:38:36;72.85;;;21.67;;
11911;SDS011;6016;41.928;25.556;2022-12-07T05:41:03;140.50;;;40.25;;
11911;SDS011;6016;41.928;25.556;2022-12-07T05:43:32;146.63;;;42.92;;
11911;SDS011;6016;41.928;25.556;2022-12-07T05:45:59;106.88;;;30.73;;
11911;SDS011;6016;41.928;25.556;2022-12-07T05:48:26;93.65;;;27.52;;
11911;SDS011;6016;41.928;25.556;2022-12-07T05:50:53;81.97;;;25.60;;
11911;SDS011;6016;41.928;25.556;2022-12-07T05:53:20;82.35;;;25.95;;
11911;SDS011;6016;41.928;25.556;2022-12-07T05:55:46;87.97;;;26.60;;
11911;SDS011;6016;41.928;25.556;2022-12-07T05:58:13;68.55;;;25.17;;
11911;SDS011;6016;41.928;25.556;2022-12-07T06:00:59;78.40;;;25.27;;
11911;SDS011;6016;41.928;25.556;2022-12-07T06:03:26;78.68;;;24.27;;
11911;SDS011;6016;41.928;25.556;2022-12-07T06:05:52;72.55;;;23.15;;
11911;SDS011;6016;41.928;25.556;2022-12-07T06:08:19;67.25;;;23.05;;
11911;SDS011;6016;41.928;25.556;2022-12-07T06:10:47;86.38;;;27.63;;
11911;SDS011;6016;41.928;25.556;2022-12-07T06:13:35;83.32;;;27.80;;
11911;SDS011;6016;41.928;25.556;2022-12-07T06:16:03;89.05;;;30.05;;
11911;SDS011;6016;41.928;25.556;2022-12-07T06:18:30;93.78;;;32.05;;
11911;SDS011;6016;41.928;25.556;2022-12-07T06:20:57;95.63;;;34.38;;
11911;SDS011;6016;41.928;25.556;2022-12-07T06:23:24;100.93;;;33.88;;
11911;SDS011;6016;41.928;25.556;2022-12-07T06:25:51;106.85;;;32.90;;
11911;SDS011;6016;41.928;25.556;2022-12-07T06:28:18;101.65;;;36.58;;
11911;SDS011;6016;41.928;25.556;2022-12-07T06:30:44;95.93;;;36.42;;
11911;SDS011;6016;41.928;25.556;2022-12-07T06:33:13;95.10;;;33.67;;
11911;SDS011;6016;41.928;25.556;2022-12-07T06:35:40;85.03;;;30.70;;
11911;SDS011;6016;41.928;25.556;2022-12-07T06:38:07;84.38;;;30.38;;
11911;SDS011;6016;41.928;25.556;2022-12-07T06:40:34;76.30;;;26.55;;
11911;SDS011;6016;41.928;25.556;2022-12-07T06:43:01;68.00;;;22.75;;
11911;SDS011;6016;41.928;25.556;2022-12-07T06:45:28;67.50;;;21.35;;
11911;SDS011;6016;41.928;25.556;2022-12-07T06:47:55;59.70;;;20.98;;
11911;SDS011;6016;41.928;25.556;2022-12-07T06:50:23;81.47;;;22.27;;
11911;SDS011;6016;41.928;25.556;2022-12-07T06:52:50;63.90;;;20.40;;
11911;SDS011;6016;41.928;25.556;2022-12-07T06:55:17;78.65;;;23.58;;
11911;SDS011;6016;41.928;25.556;2022-12-07T06:57:44;65.32;;;21.65;;
11911;SDS011;6016;41.928;25.556;2022-12-07T07:00:11;70.60;;;23.25;;
11911;SDS011;6016;41.928;25.556;2022-12-07T07:02:39;67.72;;;24.08;;
11911;SDS011;6016;41.928;25.556;2022-12-07T07:05:06;62.00;;;23.02;;
11911;SDS011;6016;41.928;25.556;2022-12-07T07:07:35;61.05;;;22.15;;
11911;SDS011;6016;41.928;25.556;2022-12-07T07:10:02;60.63;;;22.58;;
11911;SDS011;6016;41.928;25.556;2022-12-07T07:12:29;61.83;;;21.02;;
11911;SDS011;6016;41.928;25.556;2022-12-07T07:14:56;61.08;;;20.00;;
11911;SDS011;6016;41.928;25.556;2022-12-07T07:17:22;63.67;;;21.10;;
11911;SDS011;6016;41.928;25.556;2022-12-07T07:19:49;70.80;;;22.60;;
11911;SDS011;6016;41.928;25.556;2022-12-07T07:22:16;71.38;;;21.98;;
11911;SDS011;6016;41.928;25.556;2022-12-07T07:24:44;73.20;;;22.92;;
11911;SDS011;6016;41.928;25.556;2022-12-07T07:27:11;66.28;;;22.55;;
11911;SDS011;6016;41.928;25.556;2022-12-07T07:29:38;67.30;;;24.98;;
11911;SDS011;6016;41.928;25.556;2022-12-07T07:32:05;72.88;;;29.02;;
11911;SDS011;6016;41.928;25.556;2022-12-07T07:34:32;81.22;;;29.42;;
11911;SDS011;6016;41.928;25.556;2022-12-07T07:36:59;84.68;;;33.08;;
11911;SDS011;6016;41.928;25.556;2022-12-07T07:39:26;76.00;;;29.65;;
11911;SDS011;6016;41.928;25.556;2022-12-07T07:41:54;80.07;;;28.63;;
11911;SDS011;6016;41.928;25.556;2022-12-07T07:44:21;73.80;;;25.40;;
11911;SDS011;6016;41.928;25.556;2022-12-07T07:46:48;71.63;;;23.20;;
11911;SDS011;6016;41.928;25.556;2022-12-07T07:49:15;74.32;;;25.60;;
11911;SDS011;6016;41.928;25.556;2022-12-07T07:51:43;72.80;;;23.90;;
11911;SDS011;6016;41.928;25.556;2022-12-07T07:54:09;71.00;;;25.40;;
11911;SDS011;6016;41.928;25.556;2022-12-07T07:56:39;73.82;;;27.35;;
11911;SDS011;6016;41.928;25.556;2022-12-07T07:59:07;71.72;;;26.58;;
11911;SDS011;6016;41.928;25.556;2022-12-07T08:01:34;114.93;;;47.45;;
11911;SDS011;6016;41.928;25.556;2022-12-07T08:04:01;81.05;;;30.63;;
11911;SDS011;6016;41.928;25.556;2022-12-07T08:06:28;75.70;;;29.33;;
11911;SDS011;6016;41.928;25.556;2022-12-07T08:08:55;73.75;;;28.48;;
11911;SDS011;6016;41.928;25.556;2022-12-07T08:11:23;80.78;;;31.55;;
11911;SDS011;6016;41.928;25.556;2022-12-07T08:13:50;77.65;;;29.73;;
11911;SDS011;6016;41.928;25.556;2022-12-07T08:16:18;77.78;;;33.15;;
11911;SDS011;6016;41.928;25.556;2022-12-07T08:18:45;68.95;;;26.33;;
11911;SDS011;6016;41.928;25.556;2022-12-07T08:21:12;78.65;;;26.52;;
11911;SDS011;6016;41.928;25.556;2022-12-07T08:23:40;70.50;;;24.40;;
11911;SDS011;6016;41.928;25.556;2022-12-07T08:26:09;68.22;;;23.92;;
11911;SDS011;6016;41.928;25.556;2022-12-07T08:28:36;59.33;;;20.55;;
11911;SDS011;6016;41.928;25.556;2022-12-07T08:31:04;63.67;;;20.92;;
11911;SDS011;6016;41.928;25.556;2022-12-07T08:33:34;62.45;;;22.05;;
11911;SDS011;6016;41.928;25.556;2022-12-07T08:36:02;67.00;;;24.70;;
11911;SDS011;6016;41.928;25.556;2022-12-07T08:38:30;68.55;;;26.05;;
11911;SDS011;6016;41.928;25.556;2022-12-07T08:40:58;57.15;;;20.50;;
11911;SDS011;6016;41.928;25.556;2022-12-07T08:43:25;58.97;;;21.55;;
11911;SDS011;6016;41.928;25.556;2022-12-07T08:45:53;65.05;;;23.00;;
11911;SDS011;6016;41.928;25.556;2022-12-07T08:48:27;63.88;;;23.02;;
11911;SDS011;6016;41.928;25.556;2022-12-07T08:50:55;65.60;;;21.42;;
11911;SDS011;6016;41.928;25.556;2022-12-07T08:53:22;71.90;;;22.75;;
11911;SDS011;6016;41.928;25.556;2022-12-07T08:55:49;51.10;;;19.13;;
11911;SDS011;6016;41.928;25.556;2022-12-07T08:58:16;59.22;;;20.40;;
11911;SDS011;6016;41.928;25.556;2022-12-07T09:00:43;53.78;;;19.70;;
11911;SDS011;6016;41.928;25.556;2022-12-07T09:03:10;57.97;;;20.13;;
11911;SDS011;6016;41.928;25.556;2022-12-07T09:05:37;55.25;;;18.95;;
11911;SDS011;6016;41.928;25.556;2022-12-07T09:08:05;56.72;;;17.52;;
11911;SDS011;6016;41.928;25.556;2022-12-07T09:10:33;51.97;;;17.40;;
11911;SDS011;6016;41.928;25.556;2022-12-07T09:13:00;50.92;;;17.25;;
11911;SDS011;6016;41.928;25.556;2022-12-07T09:15:27;54.28;;;18.02;;
11911;SDS011;6016;41.928;25.556;2022-12-07T09:17:53;50.38;;;18.55;;
11911;SDS011;6016;41.928;25.556;2022-12-07T09:20:21;55.92;;;19.42;;
11911;SDS011;6016;41.928;25.556;2022-12-07T09:22:48;54.13;;;18.65;;
11911;SDS011;6016;41.928;25.556;2022-12-07T09:25:16;58.85;;;19.25;;
11911;SDS011;6016;41.928;25.556;2022-12-07T09:27:43;50.00;;;17.52;;
11911;SDS011;6016;41.928;25.556;2022-12-07T09:30:10;42.75;;;16.25;;
11911;SDS011;6016;41.928;25.556;2022-12-07T09:32:37;53.28;;;18.63;;
11911;SDS011;6016;41.928;25.556;2022-12-07T09:35:03;54.33;;;19.20;;
11911;SDS011;6016;41.928;25.556;2022-12-07T09:37:31;55.80;;;19.17;;
11911;SDS011;6016;41.928;25.556;2022-12-07T09:40:00;53.90;;;18.10;;
11911;SDS011;6016;41.928;25.556;2022-12-07T09:42:29;52.85;;;19.23;;
11911;SDS011;6016;41.928;25.556;2022-12-07T09:45:00;50.72;;;17.15;;
11911;SDS011;6016;41.928;25.556;2022-12-07T09:47:28;53.92;;;17.33;;
11911;SDS011;6016;41.928;25.556;2022-12-07T09:49:58;49.70;;;16.98;;
11911;SDS011;6016;41.928;25.556;2022-12-07T09:52:29;50.67;;;17.00;;
11911;SDS011;6016;41.928;25.556;2022-12-07T09:54:57;50.75;;;17.35;;
11911;SDS011;6016;41.928;25.556;2022-12-07T09:57:27;57.15;;;17.45;;
11911;SDS011;6016;41.928;25.556;2022-12-07T10:00:00;53.13;;;18.25;;
11911;SDS011;6016;41.928;25.556;2022-12-07T10:02:33;49.05;;;15.90;;
11911;SDS011;6016;41.928;25.556;2022-12-07T10:05:03;59.80;;;17.98;;
11911;SDS011;6016;41.928;25.556;2022-12-07T10:07:31;45.88;;;17.10;;
11911;SDS011;6016;41.928;25.556;2022-12-07T10:09:58;60.45;;;17.83;;
11911;SDS011;6016;41.928;25.556;2022-12-07T10:12:25;117.15;;;23.13;;
11911;SDS011;6016;41.928;25.556;2022-12-07T10:14:59;51.08;;;16.45;;
11911;SDS011;6016;41.928;25.556;2022-12-07T10:17:29;43.38;;;15.90;;
11911;SDS011;6016;41.928;25.556;2022-12-07T10:22:57;38.70;;;14.07;;
11911;SDS011;6016;41.928;25.556;2022-12-07T10:25:27;53.40;;;17.90;;
11911;SDS011;6016;41.928;25.556;2022-12-07T10:28:02;38.00;;;14.30;;
11911;SDS011;6016;41.928;25.556;2022-12-07T10:30:46;36.83;;;13.90;;
11911;SDS011;6016;41.928;25.556;2022-12-07T10:33:27;34.25;;;14.07;;
11911;SDS011;6016;41.928;25.556;2022-12-07T10:36:00;37.95;;;14.85;;
11911;SDS011;6016;41.928;25.556;2022-12-07T10:38:43;40.75;;;16.50;;
11911;SDS011;6016;41.928;25.556;2022-12-07T10:41:11;37.50;;;14.10;;
11911;SDS011;6016;41.928;25.556;2022-12-07T10:43:43;32.03;;;13.23;;
11911;SDS011;6016;41.928;25.556;2022-12-07T10:46:35;40.72;;;13.00;;
11911;SDS011;6016;41.928;25.556;2022-12-07T10:49:18;36.83;;;14.18;;
11911;SDS011;6016;41.928;25.556;2022-12-07T10:52:13;35.60;;;13.90;;
11911;SDS011;6016;41.928;25.556;2022-12-07T10:54:48;33.30;;;13.82;;
11911;SDS011;6016;41.928;25.556;2022-12-07T10:57:33;38.75;;;14.77;;
11911;SDS011;6016;41.928;25.556;2022-12-07T11:00:13;30.70;;;13.52;;
11911;SDS011;6016;41.928;25.556;2022-12-07T11:02:49;38.47;;;14.48;;
11911;SDS011;6016;41.928;25.556;2022-12-07T11:05:39;36.30;;;13.55;;
11911;SDS011;6016;41.928;25.556;2022-12-07T11:08:13;105.38;;;18.58;;
11911;SDS011;6016;41.928;25.556;2022-12-07T11:11:06;38.47;;;14.10;;
11911;SDS011;6016;41.928;25.556;2022-12-07T11:13:40;52.72;;;15.60;;
11911;SDS011;6016;41.928;25.556;2022-12-07T11:16:19;45.42;;;16.63;;
11911;SDS011;6016;41.928;25.556;2022-12-07T11:18:55;36.78;;;14.32;;
11911;SDS011;6016;41.928;25.556;2022-12-07T11:21:36;39.60;;;14.95;;
11911;SDS011;6016;41.928;25.556;2022-12-07T11:24:13;37.92;;;16.08;;
11911;SDS011;6016;41.928;25.556;2022-12-07T11:26:46;73.88;;;18.00;;
11911;SDS011;6016;41.928;25.556;2022-12-07T11:29:40;39.67;;;15.37;;
11911;SDS011;6016;41.928;25.556;2022-12-07T11:32:22;46.45;;;15.57;;
11911;SDS011;6016;41.928;25.556;2022-12-07T11:35:08;57.75;;;16.77;;
11911;SDS011;6016;41.928;25.556;2022-12-07T11:37:45;36.35;;;13.07;;
11911;SDS011;6016;41.928;25.556;2022-12-07T11:40:15;37.35;;;13.50;;
11911;SDS011;6016;41.928;25.556;2022-12-07T11:42:46;36.08;;;14.05;;
11911;SDS011;6016;41.928;25.556;2022-12-07T11:45:19;35.30;;;13.88;;
11911;SDS011;6016;41.928;25.556;2022-12-07T11:47:51;36.45;;;14.75;;
11911;SDS011;6016;41.928;25.556;2022-12-07T11:50:27;35.35;;;14.27;;
11911;SDS011;6016;41.928;25.556;2022-12-07T11:53:01;34.22;;;13.25;;
11911;SDS011;6016;41.928;25.556;2022-12-07T11:55:40;31.80;;;13.45;;
11911;SDS011;6016;41.928;25.556;2022-12-07T11:58:17;31.00;;;12.38;;
11911;SDS011;6016;41.928;25.556;2022-12-07T12:01:01;42.60;;;15.18;;
11911;SDS011;6016;41.928;25.556;2022-12-07T12:03:53;38.30;;;14.25;;
11911;SDS011;6016;41.928;25.556;2022-12-07T12:06:27;41.20;;;14.67;;
11911;SDS011;6016;41.928;25.556;2022-12-07T12:08:55;34.22;;;13.82;;
11911;SDS011;6016;41.928;25.556;2022-12-07T12:11:34;35.70;;;14.25;;
11911;SDS011;6016;41.928;25.556;2022-12-07T12:14:19;33.38;;;13.60;;
11911;SDS011;6016;41.928;25.556;2022-12-07T12:17:03;35.13;;;14.60;;
11911;SDS011;6016;41.928;25.556;2022-12-07T12:19:45;33.97;;;14.65;;
11911;SDS011;6016;41.928;25.556;2022-12-07T12:22:28;35.93;;;16.07;;
11911;SDS011;6016;41.928;25.556;2022-12-07T12:25:02;36.83;;;14.13;;
11911;SDS011;6016;41.928;25.556;2022-12-07T12:27:33;35.13;;;13.63;;
11911;SDS011;6016;41.928;25.556;2022-12-07T12:30:05;42.65;;;18.70;;
11911;SDS011;6016;41.928;25.556;2022-12-07T12:32:36;39.08;;;15.48;;
11911;SDS011;6016;41.928;25.556;2022-12-07T12:35:28;39.40;;;16.27;;
11911;SDS011;6016;41.928;25.556;2022-12-07T12:41:02;63.45;;;25.90;;
11911;SDS011;6016;41.928;25.556;2022-12-07T12:43:46;66.13;;;26.73;;
11911;SDS011;6016;41.928;25.556;2022-12-07T12:52:02;46.95;;;21.33;;
11911;SDS011;6016;41.928;25.556;2022-12-07T12:55:15;41.25;;;17.88;;
11911;SDS011;6016;41.928;25.556;2022-12-07T12:57:46;42.42;;;16.45;;
11911;SDS011;6016;41.928;25.556;2022-12-07T13:00:17;38.03;;;15.35;;
11911;SDS011;6016;41.928;25.556;2022-12-07T13:02:49;41.85;;;16.55;;
11911;SDS011;6016;41.928;25.556;2022-12-07T13:05:20;42.83;;;17.60;;
11911;SDS011;6016;41.928;25.556;2022-12-07T13:10:34;45.88;;;16.00;;
11911;SDS011;6016;41.928;25.556;2022-12-07T13:25:19;65.13;;;24.85;;
11911;SDS011;6016;41.928;25.556;2022-12-07T13:28:10;50.40;;;18.88;;
11911;SDS011;6016;41.928;25.556;2022-12-07T13:30:43;44.80;;;18.70;;
11911;SDS011;6016;41.928;25.556;2022-12-07T13:33:16;42.40;;;19.00;;
11911;SDS011;6016;41.928;25.556;2022-12-07T13:35:53;57.28;;;22.52;;
11911;SDS011;6016;41.928;25.556;2022-12-07T13:38:25;43.47;;;17.52;;
11911;SDS011;6016;41.928;25.556;2022-12-07T13:41:02;52.55;;;20.52;;
11911;SDS011;6016;41.928;25.556;2022-12-07T13:43:50;41.05;;;18.35;;
11911;SDS011;6016;41.928;25.556;2022-12-07T13:46:20;48.63;;;21.00;;
11911;SDS011;6016;41.928;25.556;2022-12-07T13:48:55;48.40;;;20.80;;
11911;SDS011;6016;41.928;25.556;2022-12-07T13:51:23;44.58;;;18.52;;
11911;SDS011;6016;41.928;25.556;2022-12-07T13:53:52;51.92;;;18.70;;
11911;SDS011;6016;41.928;25.556;2022-12-07T13:56:25;42.10;;;18.03;;
11911;SDS011;6016;41.928;25.556;2022-12-07T13:58:57;39.17;;;17.20;;
11911;SDS011;6016;41.928;25.556;2022-12-07T14:01:24;49.60;;;19.67;;
11911;SDS011;6016;41.928;25.556;2022-12-07T14:03:51;61.75;;;25.02;;
11911;SDS011;6016;41.928;25.556;2022-12-07T14:06:23;49.72;;;20.50;;
11911;SDS011;6016;41.928;25.556;2022-12-07T14:09:05;63.28;;;27.38;;
11911;SDS011;6016;41.928;25.556;2022-12-07T14:11:33;94.00;;;41.22;;
11911;SDS011;6016;41.928;25.556;2022-12-07T14:14:02;82.30;;;32.88;;
11911;SDS011;6016;41.928;25.556;2022-12-07T14:16:33;73.45;;;30.83;;
11911;SDS011;6016;41.928;25.556;2022-12-07T14:19:06;84.88;;;34.90;;
11911;SDS011;6016;41.928;25.556;2022-12-07T14:22:07;67.28;;;27.92;;
11911;SDS011;6016;41.928;25.556;2022-12-07T14:24:41;55.83;;;23.88;;
11911;SDS011;6016;41.928;25.556;2022-12-07T14:27:16;54.80;;;21.02;;
11911;SDS011;6016;41.928;25.556;2022-12-07T14:29:46;45.33;;;19.77;;
11911;SDS011;6016;41.928;25.556;2022-12-07T14:32:21;53.00;;;19.33;;
11911;SDS011;6016;41.928;25.556;2022-12-07T14:34:54;50.95;;;20.10;;
11911;SDS011;6016;41.928;25.556;2022-12-07T14:37:36;56.22;;;20.42;;
11911;SDS011;6016;41.928;25.556;2022-12-07T14:40:12;54.55;;;22.48;;
11911;SDS011;6016;41.928;25.556;2022-12-07T14:42:39;58.50;;;23.40;;
11911;SDS011;6016;41.928;25.556;2022-12-07T14:45:12;62.83;;;27.13;;
11911;SDS011;6016;41.928;25.556;2022-12-07T14:47:45;62.78;;;26.67;;
11911;SDS011;6016;41.928;25.556;2022-12-07T14:50:13;59.63;;;26.02;;
11911;SDS011;6016;41.928;25.556;2022-12-07T14:52:42;71.95;;;26.70;;
11911;SDS011;6016;41.928;25.556;2022-12-07T14:55:14;143.88;;;61.67;;
11911;SDS011;6016;41.928;25.556;2022-12-07T14:57:49;196.40;;;82.40;;
11911;SDS011;6016;41.928;25.556;2022-12-07T15:00:18;197.82;;;72.72;;
11911;SDS011;6016;41.928;25.556;2022-12-07T15:02:46;357.77;;;136.27;;
11911;SDS011;6016;41.928;25.556;2022-12-07T15:05:14;294.75;;;114.03;;
11911;SDS011;6016;41.928;25.556;2022-12-07T15:07:42;413.80;;;175.45;;
11911;SDS011;6016;41.928;25.556;2022-12-07T15:10:12;94.13;;;36.00;;
11911;SDS011;6016;41.928;25.556;2022-12-07T15:12:43;57.53;;;25.88;;
11911;SDS011;6016;41.928;25.556;2022-12-07T15:15:13;50.30;;;22.60;;